createdAt,value
2023-07-24T00:02:01.706Z,6.40
2023-07-24T00:05:05.189Z,4.67
2023-07-24T00:08:09.437Z,5.10
2023-07-24T00:11:11.985Z,6.95
2023-07-24T00:14:22.879Z,4.05
2023-07-24T00:17:26.044Z,6.47
2023-07-24T00:20:28.930Z,4.95
2023-07-24T00:23:36.158Z,5.30
2023-07-24T00:26:39.274Z,5.00
2023-07-24T00:29:45.058Z,5.18
2023-07-24T00:32:49.141Z,4.68
2023-07-24T00:35:56.782Z,6.57
2023-07-24T00:38:59.319Z,4.85
2023-07-24T00:42:02.891Z,4.40
2023-07-24T00:45:05.992Z,7.07
2023-07-24T00:48:08.790Z,5.82
2023-07-24T00:51:14.608Z,6.20
2023-07-24T00:54:18.639Z,5.85
2023-07-24T00:57:21.435Z,3.40
2023-07-24T01:00:27.784Z,5.05
2023-07-24T01:03:36.944Z,4.53
2023-07-24T01:06:40.063Z,3.40
2023-07-24T01:09:42.564Z,5.18
2023-07-24T01:13:01.388Z,6.43
2023-07-24T01:16:14.106Z,4.60
2023-07-24T01:19:48.939Z,6.03
2023-07-24T01:23:32.951Z,4.53
2023-07-24T01:26:35.730Z,3.65
2023-07-24T01:29:38.146Z,4.97
2023-07-24T01:32:41.008Z,5.65
2023-07-24T01:35:45.394Z,3.38
2023-07-24T01:38:51.406Z,5.40
2023-07-24T01:41:54.510Z,6.30
2023-07-24T01:44:57.317Z,6.53
2023-07-24T01:48:00.658Z,4.82
2023-07-24T01:51:04.607Z,6.93
2023-07-24T01:54:10.005Z,4.57
2023-07-24T01:57:12.531Z,6.53
2023-07-24T02:00:17.046Z,5.13
2023-07-24T02:03:19.650Z,4.63
2023-07-24T02:06:23.191Z,5.20
2023-07-24T02:09:25.795Z,6.60
2023-07-24T02:12:28.264Z,5.60
2023-07-24T02:15:31.316Z,6.25
2023-07-24T02:18:33.759Z,7.13
2023-07-24T02:21:36.155Z,5.28
2023-07-24T02:24:38.617Z,4.80
2023-07-24T02:27:41.094Z,5.90
2023-07-24T02:30:43.497Z,5.70
2023-07-24T02:33:46.044Z,4.90
2023-07-24T02:36:50.334Z,6.47
2023-07-24T02:39:54.469Z,5.87
2023-07-24T02:42:56.850Z,5.63
2023-07-24T02:46:05.373Z,6.13
2023-07-24T02:49:09.073Z,4.97
2023-07-24T02:52:12.053Z,6.25
2023-07-24T02:55:15.053Z,5.20
2023-07-24T02:58:17.934Z,9.73
2023-07-24T03:01:20.473Z,9.07
2023-07-24T03:04:22.980Z,11.38
2023-07-24T03:07:26.307Z,14.70
2023-07-24T03:10:28.848Z,6.37
2023-07-24T03:13:31.598Z,7.07
2023-07-24T03:16:34.152Z,6.35
2023-07-24T03:19:36.533Z,7.43
2023-07-24T03:22:38.901Z,7.60
2023-07-24T03:25:43.642Z,5.43
2023-07-24T03:28:46.623Z,6.20
2023-07-24T03:31:49.510Z,9.07
2023-07-24T03:34:52.191Z,6.00
2023-07-24T03:37:54.666Z,8.10
2023-07-24T03:40:57.022Z,6.47
2023-07-24T03:43:59.644Z,6.07
2023-07-24T03:47:02.485Z,6.55
2023-07-24T03:50:05.410Z,6.90
2023-07-24T03:53:07.789Z,6.53
2023-07-24T03:56:13.078Z,6.93
2023-07-24T03:59:16.297Z,5.30
2023-07-24T04:02:20.145Z,8.17
2023-07-24T04:05:22.601Z,8.82
2023-07-24T04:08:25.611Z,5.78
2023-07-24T04:11:28.081Z,8.20
2023-07-24T04:14:30.770Z,6.65
2023-07-24T04:17:35.291Z,7.82
2023-07-24T04:20:38.506Z,5.32
2023-07-24T04:23:44.418Z,6.00
2023-07-24T04:26:47.577Z,6.75
2023-07-24T04:29:50.035Z,6.15
2023-07-24T04:32:52.453Z,6.70
2023-07-24T04:35:57.716Z,6.05
2023-07-24T04:39:00.103Z,7.78
2023-07-24T04:42:02.546Z,9.90
2023-07-24T04:45:05.346Z,8.18
2023-07-24T04:48:07.788Z,8.73
2023-07-24T04:51:10.788Z,6.93
2023-07-24T04:54:13.304Z,9.23
2023-07-24T04:57:15.724Z,7.70
2023-07-24T05:00:18.099Z,6.43
2023-07-24T05:03:21.207Z,6.40
2023-07-24T05:06:26.286Z,8.90
2023-07-24T05:09:28.678Z,6.65
2023-07-24T05:12:31.483Z,7.90
2023-07-24T05:15:33.990Z,11.55
2023-07-24T05:18:40.466Z,6.90
2023-07-24T05:21:49.529Z,7.93
2023-07-24T05:24:52.506Z,6.75
2023-07-24T05:27:54.888Z,9.88
2023-07-24T05:31:02.272Z,8.10
2023-07-24T05:34:04.879Z,7.77
2023-07-24T05:37:07.280Z,7.55
2023-07-24T05:40:10.322Z,8.13
2023-07-24T05:43:12.792Z,6.77
2023-07-24T05:46:15.250Z,7.90
2023-07-24T05:49:18.460Z,7.90
2023-07-24T05:52:21.117Z,10.25
2023-07-24T05:55:24.571Z,7.55
2023-07-24T05:58:27.626Z,8.48
2023-07-24T06:01:30.240Z,8.02
2023-07-24T06:04:32.841Z,8.43
2023-07-24T06:07:35.554Z,8.85
2023-07-24T06:10:38.747Z,8.00
2023-07-24T06:13:41.178Z,7.73
2023-07-24T06:16:43.615Z,7.65
2023-07-24T06:19:46.260Z,8.05
2023-07-24T06:22:48.779Z,7.60
2023-07-24T06:25:52.865Z,7.15
2023-07-24T06:28:55.267Z,7.93
2023-07-24T06:31:57.710Z,8.35
2023-07-24T06:35:00.096Z,7.33
2023-07-24T06:38:02.529Z,7.00
2023-07-24T06:41:05.202Z,7.75
2023-07-24T06:44:07.916Z,8.80
2023-07-24T06:47:12.169Z,7.95
2023-07-24T06:50:15.093Z,7.90
2023-07-24T06:53:18.029Z,8.38
2023-07-24T06:56:23.407Z,9.18
2023-07-24T06:59:25.968Z,9.02
2023-07-24T07:02:34.076Z,8.27
2023-07-24T07:05:37.418Z,8.13
2023-07-24T07:08:41.390Z,8.82
2023-07-24T07:11:44.537Z,8.07
2023-07-24T07:14:47.272Z,9.50
2023-07-24T07:17:50.525Z,9.38
2023-07-24T07:20:54.876Z,9.38
2023-07-24T07:23:57.552Z,8.70
2023-07-24T07:27:01.108Z,8.43
2023-07-24T07:30:06.074Z,10.52
2023-07-24T07:33:08.855Z,9.50
2023-07-24T07:36:12.374Z,9.50
2023-07-24T07:39:14.874Z,8.98
2023-07-24T07:42:18.720Z,7.95
2023-07-24T07:45:22.334Z,9.23
2023-07-24T07:48:26.822Z,8.57
2023-07-24T07:51:34.718Z,9.20
2023-07-24T07:54:37.227Z,9.43
2023-07-24T07:57:39.870Z,8.25
2023-07-24T08:00:42.484Z,8.95
2023-07-24T08:03:45.168Z,9.50
2023-07-24T08:06:48.582Z,8.30
2023-07-24T08:10:00.407Z,9.10
2023-07-24T08:13:02.757Z,7.72
2023-07-24T08:16:05.412Z,8.03
2023-07-24T08:19:08.022Z,8.05
2023-07-24T08:22:11.442Z,8.50
2023-07-24T08:25:15.480Z,9.07
2023-07-24T08:28:19.446Z,8.10
2023-07-24T08:31:23.200Z,7.75
2023-07-24T08:34:26.355Z,7.72
2023-07-24T08:37:29.070Z,7.00
2023-07-24T08:40:33.054Z,7.80
2023-07-24T08:43:37.555Z,8.13
2023-07-24T08:46:42.554Z,8.17
2023-07-24T08:49:48.281Z,7.60
2023-07-24T08:52:50.806Z,6.93
2023-07-24T08:55:55.833Z,8.18
2023-07-24T08:58:58.412Z,7.93
2023-07-24T09:02:00.877Z,9.02
2023-07-24T09:05:04.663Z,8.02
2023-07-24T09:08:08.512Z,9.37
2023-07-24T09:11:15.073Z,8.95
2023-07-24T09:14:32.302Z,10.18
2023-07-24T09:17:35.364Z,10.33
2023-07-24T09:20:43.462Z,7.50
2023-07-24T09:23:46.484Z,7.43
2023-07-24T09:26:58.491Z,8.60
2023-07-24T09:30:02.815Z,9.98
2023-07-24T09:33:06.165Z,8.27
2023-07-24T09:36:10.406Z,7.88
2023-07-24T09:39:13.088Z,9.33
2023-07-24T09:42:17.666Z,9.20
2023-07-24T09:45:23.422Z,9.25
2023-07-24T09:51:33.667Z,10.20
2023-07-24T09:54:47.261Z,7.88
2023-07-24T09:57:54.137Z,9.38
2023-07-24T10:00:58.038Z,7.68
2023-07-24T10:04:02.330Z,10.52
2023-07-24T10:07:08.247Z,7.95
2023-07-24T10:10:11.139Z,8.20
2023-07-24T10:13:16.025Z,8.07
2023-07-24T10:16:18.477Z,7.25
2023-07-24T10:19:22.051Z,8.40
2023-07-24T10:22:26.811Z,7.45
2023-07-24T10:25:37.403Z,8.52
2023-07-24T10:28:42.802Z,7.75
2023-07-24T10:31:54.383Z,10.23
2023-07-24T10:34:59.112Z,9.00
2023-07-24T10:38:03.871Z,9.48
2023-07-24T10:41:09.298Z,8.25
2023-07-24T10:44:12.429Z,9.50
2023-07-24T10:47:17.222Z,7.85
2023-07-24T10:50:19.847Z,7.57
2023-07-24T10:53:23.885Z,7.35
2023-07-24T10:56:26.812Z,10.13
2023-07-24T10:59:41.622Z,7.53
2023-07-24T11:02:44.249Z,9.02
2023-07-24T11:05:48.457Z,8.30
2023-07-24T11:08:58.286Z,9.63
2023-07-24T11:12:14.050Z,9.70
2023-07-24T11:15:17.480Z,8.40
2023-07-24T11:18:27.950Z,8.80
2023-07-24T11:21:37.580Z,8.07
2023-07-24T11:24:49.729Z,9.85
2023-07-24T11:27:52.546Z,10.95
2023-07-24T11:30:55.135Z,9.43
2023-07-24T11:33:57.753Z,10.05
2023-07-24T11:37:01.887Z,7.78
2023-07-24T11:40:09.963Z,9.48
2023-07-24T11:43:20.896Z,10.23
2023-07-24T11:46:26.697Z,8.40
2023-07-24T11:49:34.246Z,9.15
2023-07-24T11:52:44.750Z,8.75
2023-07-24T11:55:47.194Z,9.50
2023-07-24T11:58:50.002Z,11.15
2023-07-24T12:01:53.015Z,8.55
2023-07-24T12:05:02.214Z,7.95
2023-07-24T12:08:05.338Z,8.83
2023-07-24T12:11:17.776Z,8.68
2023-07-24T12:14:20.557Z,10.70
2023-07-24T12:17:23.901Z,10.52
2023-07-24T12:20:26.602Z,8.85
2023-07-24T12:23:29.070Z,9.55
2023-07-24T12:26:35.474Z,9.65
2023-07-24T12:29:38.266Z,9.03
2023-07-24T12:32:40.942Z,12.15
2023-07-24T12:35:43.507Z,8.95
2023-07-24T12:38:49.768Z,10.00
2023-07-24T12:41:52.588Z,8.27
2023-07-24T12:44:58.988Z,9.93
2023-07-24T12:48:01.815Z,9.43
2023-07-24T12:51:04.480Z,8.20
2023-07-24T12:54:13.130Z,8.83
2023-07-24T12:57:30.576Z,12.10
2023-07-24T13:00:33.482Z,9.13
2023-07-24T13:03:39.574Z,10.75
2023-07-24T13:06:42.354Z,9.95
2023-07-24T13:09:45.745Z,12.57
2023-07-24T13:12:48.705Z,10.35
2023-07-24T13:15:52.022Z,10.43
2023-07-24T13:18:54.961Z,9.63
2023-07-24T13:21:58.892Z,11.30
2023-07-24T13:25:02.185Z,13.10
2023-07-24T13:28:04.941Z,10.38
2023-07-24T13:31:21.765Z,10.80
2023-07-24T13:34:25.671Z,9.35
2023-07-24T13:37:31.359Z,10.60
2023-07-24T13:40:34.308Z,9.55
2023-07-24T13:43:37.206Z,12.00
2023-07-24T13:46:41.282Z,8.25
2023-07-24T13:49:44.288Z,10.63
2023-07-24T13:52:47.260Z,9.50
2023-07-24T13:55:49.997Z,9.88
2023-07-24T13:58:52.626Z,13.37
2023-07-24T14:01:55.856Z,9.18
2023-07-24T14:04:58.305Z,10.65
2023-07-24T14:08:01.275Z,13.07
2023-07-24T14:11:04.147Z,12.18
2023-07-24T14:14:07.014Z,11.02
2023-07-24T14:17:09.544Z,11.25
2023-07-24T14:20:12.306Z,10.47
2023-07-24T14:23:14.782Z,12.05
2023-07-24T14:26:17.281Z,11.50
2023-07-24T14:29:20.133Z,12.60
2023-07-24T14:32:23.232Z,11.30
2023-07-24T14:35:26.664Z,9.52
2023-07-24T14:38:31.583Z,10.82
2023-07-24T14:41:34.037Z,10.60
2023-07-24T14:44:36.388Z,11.02
2023-07-24T14:47:38.931Z,14.30
2023-07-24T14:50:41.650Z,8.77
2023-07-24T14:53:44.019Z,9.45
2023-07-24T14:56:55.581Z,9.27
2023-07-24T15:00:03.361Z,9.77
2023-07-24T15:03:05.856Z,8.75
2023-07-24T15:06:08.906Z,10.57
2023-07-24T15:09:12.586Z,9.85
2023-07-24T15:12:15.157Z,9.82
2023-07-24T15:15:17.752Z,9.57
2023-07-24T15:18:23.360Z,12.20
2023-07-24T15:21:26.884Z,10.80
2023-07-24T15:24:29.545Z,12.57
2023-07-24T15:27:32.006Z,10.35
2023-07-24T15:30:34.743Z,10.67
2023-07-24T15:33:37.154Z,14.55
2023-07-24T15:36:39.916Z,11.63
2023-07-24T15:39:42.874Z,13.45
2023-07-24T15:42:47.572Z,12.52
2023-07-24T15:45:51.887Z,13.43
2023-07-24T15:48:54.504Z,12.65
2023-07-24T15:51:57.114Z,11.47
2023-07-24T15:55:01.700Z,11.00
2023-07-24T15:58:05.182Z,11.57
2023-07-24T16:01:08.830Z,12.20
2023-07-24T16:04:11.873Z,11.63
2023-07-24T16:07:14.756Z,11.60
2023-07-24T16:10:20.664Z,11.80
2023-07-24T16:13:29.139Z,11.60
2023-07-24T16:16:32.982Z,13.27
2023-07-24T16:19:35.575Z,10.93
2023-07-24T16:22:41.009Z,13.23
2023-07-24T16:25:43.474Z,11.82
2023-07-24T16:28:45.885Z,11.05
2023-07-24T16:31:48.498Z,14.17
2023-07-24T16:34:52.353Z,12.48
2023-07-24T16:37:56.683Z,12.15
2023-07-24T16:41:00.111Z,11.13
2023-07-24T16:44:03.506Z,13.25
2023-07-24T16:50:14.095Z,16.40
2023-07-24T16:53:19.358Z,13.37
2023-07-24T16:56:22.125Z,14.77
2023-07-24T16:59:25.327Z,12.85
2023-07-24T17:02:28.915Z,13.00
2023-07-24T17:05:31.861Z,12.75
2023-07-24T17:08:34.529Z,12.25
2023-07-24T17:11:40.782Z,11.25
2023-07-24T17:14:44.321Z,10.70
2023-07-24T17:17:47.594Z,17.35
2023-07-24T17:20:51.721Z,14.43
2023-07-24T17:23:54.273Z,14.77
2023-07-24T17:26:57.032Z,12.98
2023-07-24T17:30:00.741Z,13.18
2023-07-24T17:33:03.475Z,15.40
2023-07-24T17:36:08.462Z,16.55
2023-07-24T17:39:11.226Z,15.60
2023-07-24T17:42:16.801Z,16.35
2023-07-24T17:45:22.448Z,17.25
2023-07-24T17:48:25.224Z,16.02
2023-07-24T17:51:27.973Z,14.05
2023-07-24T17:54:31.455Z,15.67
2023-07-24T17:57:35.134Z,14.52
2023-07-24T18:00:41.734Z,14.85
2023-07-24T18:03:44.720Z,17.83
2023-07-24T18:06:48.388Z,17.00
2023-07-24T18:09:50.795Z,13.75
2023-07-24T18:12:57.455Z,20.60
2023-07-24T18:16:00.169Z,16.27
2023-07-24T18:19:08.016Z,13.70
2023-07-24T18:22:11.380Z,17.30
2023-07-24T18:25:13.807Z,16.43
2023-07-24T18:28:17.376Z,17.10
2023-07-24T18:31:21.024Z,15.77
2023-07-24T18:34:24.284Z,15.57
2023-07-24T18:37:27.218Z,18.35
2023-07-24T18:40:29.948Z,17.98
2023-07-24T18:43:32.383Z,16.33
2023-07-24T18:46:35.542Z,18.35
2023-07-24T18:49:38.723Z,17.88
2023-07-24T18:52:41.440Z,24.40
2023-07-24T18:55:45.847Z,23.43
2023-07-24T18:58:50.480Z,21.35
2023-07-24T19:01:53.241Z,18.63
2023-07-24T19:04:55.688Z,20.93
2023-07-24T19:08:01.398Z,19.48
2023-07-24T19:11:05.014Z,19.30
2023-07-24T19:14:07.870Z,22.58
2023-07-24T19:17:16.313Z,21.48
2023-07-24T19:20:22.290Z,18.20
2023-07-24T19:23:25.163Z,19.92
2023-07-24T19:26:30.366Z,21.57
2023-07-24T19:29:34.148Z,21.15
2023-07-24T19:32:40.452Z,19.73
2023-07-24T19:35:48.444Z,21.20
2023-07-24T19:38:53.019Z,21.73
2023-07-24T19:41:55.667Z,23.42
2023-07-24T19:45:00.517Z,23.70
2023-07-24T19:48:04.680Z,22.23
2023-07-24T19:51:08.124Z,22.83
2023-07-24T19:54:11.602Z,21.15
2023-07-24T19:57:14.094Z,20.93
2023-07-24T20:00:16.669Z,20.77
2023-07-24T20:03:19.869Z,19.85
2023-07-24T20:06:22.441Z,18.77
2023-07-24T20:09:24.881Z,21.40
2023-07-24T20:12:27.432Z,22.88
2023-07-24T20:15:29.793Z,21.58
2023-07-24T20:18:32.179Z,22.00
2023-07-24T20:21:34.853Z,20.55
2023-07-24T20:24:37.346Z,24.00
2023-07-24T20:27:40.514Z,19.33
2023-07-24T20:30:43.174Z,24.85
2023-07-24T20:33:46.243Z,20.20
2023-07-24T20:36:49.793Z,21.23
2023-07-24T20:39:52.988Z,20.33
2023-07-24T20:42:56.676Z,19.50
2023-07-24T20:46:10.632Z,20.80
2023-07-24T20:49:13.459Z,18.55
2023-07-24T20:52:16.320Z,21.73
2023-07-24T20:55:19.015Z,19.25
2023-07-24T20:58:21.388Z,20.40
2023-07-24T21:01:24.436Z,20.83
2023-07-24T21:04:27.221Z,18.70
2023-07-24T21:07:32.918Z,19.53
2023-07-24T21:10:35.475Z,20.67
2023-07-24T21:13:38.056Z,16.33
2023-07-24T21:16:40.449Z,19.35
2023-07-24T21:19:43.250Z,17.52
2023-07-24T21:22:46.285Z,18.45
2023-07-24T21:25:57.004Z,20.00
2023-07-24T21:28:59.722Z,17.90
2023-07-24T21:32:02.985Z,18.67
2023-07-24T21:35:06.461Z,17.45
2023-07-24T21:38:09.884Z,21.30
2023-07-24T21:41:14.158Z,20.48
2023-07-24T21:44:17.294Z,19.70
2023-07-24T21:47:20.498Z,19.65
2023-07-24T21:50:22.940Z,18.08
2023-07-24T21:53:26.342Z,17.80
2023-07-24T21:56:29.407Z,20.10
2023-07-24T21:59:32.038Z,16.53
2023-07-24T22:02:34.959Z,20.27
2023-07-24T22:05:43.548Z,22.42
2023-07-24T22:08:50.482Z,15.90
2023-07-24T22:11:52.994Z,18.20
2023-07-24T22:14:55.387Z,18.60
2023-07-24T22:17:58.320Z,17.30
2023-07-24T22:21:01.364Z,18.77
2023-07-24T22:24:04.384Z,19.23
2023-07-24T22:27:07.563Z,19.92
2023-07-24T22:30:10.991Z,17.67
2023-07-24T22:33:13.594Z,19.88
2023-07-24T22:36:16.014Z,17.17
2023-07-24T22:39:18.384Z,16.93
2023-07-24T22:42:21.783Z,19.27
2023-07-24T22:45:26.497Z,17.27
2023-07-24T22:48:29.204Z,17.88
2023-07-24T22:51:32.264Z,20.35
2023-07-24T22:54:35.037Z,17.75
2023-07-24T22:57:37.530Z,19.83
2023-07-24T23:00:40.533Z,18.77
2023-07-24T23:03:49.922Z,18.70
2023-07-24T23:06:55.732Z,16.60
2023-07-24T23:09:58.184Z,17.03
2023-07-24T23:13:01.235Z,15.95
2023-07-24T23:16:05.061Z,17.90
2023-07-24T23:19:07.592Z,17.08
2023-07-24T23:22:10.630Z,16.08
2023-07-24T23:25:13.435Z,16.67
2023-07-24T23:28:16.303Z,18.02
2023-07-24T23:31:19.866Z,16.77
2023-07-24T23:34:22.779Z,16.15
2023-07-24T23:37:25.188Z,16.27
2023-07-24T23:40:28.266Z,16.80
2023-07-24T23:43:31.768Z,17.08
2023-07-24T23:46:34.168Z,20.25
2023-07-24T23:49:36.697Z,16.75
2023-07-24T23:52:39.490Z,14.85
2023-07-24T23:55:43.058Z,17.73
2023-07-24T23:58:46.358Z,18.30
